KASH/ASH METAR and TAF weather

Enter ICAO airport designator
Station Type Date Time Source
KASH METAR 2022/06/28 14:56 UTC NOAA

KASH 281456Z 00000KT 10SM BKN055 23/11 A3011 RMK AO2 SLP200 T02280111 52007 $


Station Type Date Time Source
KASH Decoded METAR 2022/06/28 14:56 UTC NOAA

Nashua, Boire Field Airport, NH, United States (KASH) 42-46-54N 071-30-53W
Jun 28, 2022 - 10:56 AM EDT / 2022.06.28 1456 UTC
Wind: Calm:0
Visibility: 10 mile(s):0
Sky conditions: mostly cloudy
Temperature: 73.0 F (22.8 C)
Dew Point: 52.0 F (11.1 C)
Relative Humidity: 47%
Pressure (altimeter): 30.11 in. Hg (1019 hPa)
Pressure tendency: 0.02 inches (0.7 hPa) higher than three hours ago
ob: KASH 281456Z 00000KT 10SM BKN055 23/11 A3011 RMK AO2 SLP200 T02280111 52007
cycle: 15

Station Type Date Time Source
KASH TAF UTC NOAA

Error!

Example: see airport list